AYNZ/LAE METAR and TAF weather

Enter ICAO airport designator
Station Type Date Time Source
AYNZ METAR 2021/01/20 22:00 UTC NOAA

AYNZ 202200Z 21006KT 9999 SCT050 28/22 Q1010=


Station Type Date Time Source
AYNZ Decoded METAR 2021/01/20 22:00 UTC NOAA

Station name not available
Jan 20, 2021 - 05:00 PM EST / 2021.01.20 2200 UTC
Wind: from the SSW (210 degrees) at 7 MPH (6 KT):0
Visibility: greater than 7 mile(s):0
Sky conditions: partly cloudy
Temperature: 82 F (28 C)
Dew Point: 71 F (22 C)
Relative Humidity: 69%
Pressure (altimeter): 29.83 in. Hg (1010 hPa)
ob: AYNZ 202200Z 21006KT 9999 SCT050 28/22 Q1010=
cycle: 22

Station Type Date Time Source
AYNZ TAF 2015/08/19 08:15 UTC NOAA

TAF AYNZ 190550Z 1908/1920 09015KT 9999 SCT020 SCT120
FM191400 VRB03KT 9999 BKN040 Q 1011 1014 1013 1010

Example: see airport list